createdAt,value
2018-11-07T00:00:06.836Z,9.20
2018-11-07T00:02:35.769Z,9.20
2018-11-07T00:05:05.692Z,9.20
2018-11-07T00:07:34.817Z,9.20
2018-11-07T00:10:04.108Z,9.20
2018-11-07T00:12:33.079Z,9.20
2018-11-07T00:15:02.031Z,9.20
2018-11-07T00:17:31.047Z,9.20
2018-11-07T00:20:00.557Z,9.20
2018-11-07T00:22:29.486Z,9.20
2018-11-07T00:24:58.423Z,9.20
2018-11-07T00:27:27.413Z,9.20
2018-11-07T00:29:56.435Z,9.20
2018-11-07T00:32:25.579Z,9.30
2018-11-07T00:34:54.556Z,9.30
2018-11-07T00:37:23.745Z,9.30
2018-11-07T00:39:52.725Z,9.30
2018-11-07T00:42:21.716Z,9.30
2018-11-07T00:44:51.171Z,9.30
2018-11-07T00:47:20.113Z,9.40
2018-11-07T00:49:49.198Z,9.40
2018-11-07T00:52:18.383Z,9.40
2018-11-07T00:54:47.479Z,9.40
2018-11-07T00:57:16.418Z,9.40
2018-11-07T00:59:45.369Z,9.40
2018-11-07T01:02:14.327Z,9.40
2018-11-07T01:04:43.263Z,9.30
2018-11-07T01:07:12.268Z,9.30
2018-11-07T01:09:41.358Z,9.30
2018-11-07T01:12:10.523Z,9.20
2018-11-07T01:14:39.514Z,9.20
2018-11-07T01:17:08.532Z,9.20
2018-11-07T01:19:37.505Z,9.30
2018-11-07T01:22:07.247Z,9.30
2018-11-07T01:24:36.182Z,9.30
2018-11-07T01:27:05.180Z,9.30
2018-11-07T01:29:34.149Z,9.20
2018-11-07T01:32:03.100Z,9.20
2018-11-07T01:34:32.065Z,9.20
2018-11-07T01:37:01.063Z,9.20
2018-11-07T01:39:30.154Z,9.20
2018-11-07T01:41:59.115Z,9.20
2018-11-07T01:44:28.367Z,9.20
2018-11-07T01:46:57.290Z,9.20
2018-11-07T01:49:26.229Z,9.20
2018-11-07T01:51:55.222Z,9.20
2018-11-07T01:54:24.213Z,9.20
2018-11-07T01:56:53.134Z,9.20
2018-11-07T01:59:22.062Z,9.20
2018-11-07T02:01:51.016Z,9.20
2018-11-07T02:04:20.286Z,9.20
2018-11-07T02:06:49.226Z,9.10
2018-11-07T02:09:18.139Z,9.10
2018-11-07T02:11:46.994Z,9.10
2018-11-07T02:14:16.004Z,9.20
2018-11-07T02:16:45.256Z,9.20
2018-11-07T02:19:14.309Z,9.20
2018-11-07T02:21:43.492Z,9.30
2018-11-07T02:24:12.405Z,9.30
2018-11-07T02:26:41.693Z,9.30
2018-11-07T02:29:14.486Z,9.30
2018-11-07T02:31:46.169Z,9.40
2018-11-07T02:34:16.233Z,9.40
2018-11-07T02:36:45.376Z,9.50
2018-11-07T02:39:15.567Z,9.50
2018-11-07T02:41:44.582Z,9.50
2018-11-07T02:44:14.158Z,9.60
2018-11-07T02:46:43.547Z,9.60
2018-11-07T02:49:12.495Z,9.60
2018-11-07T02:51:41.447Z,9.60
2018-11-07T02:54:10.356Z,9.60
2018-11-07T02:56:39.276Z,9.50
2018-11-07T02:59:08.203Z,9.50
2018-11-07T03:01:37.291Z,9.50
2018-11-07T03:04:06.381Z,9.40
2018-11-07T03:06:35.317Z,9.40
2018-11-07T03:09:06.533Z,9.40
2018-11-07T03:11:35.826Z,9.30
2018-11-07T03:14:05.205Z,9.30
2018-11-07T03:16:34.207Z,9.30
2018-11-07T03:19:03.126Z,9.30
2018-11-07T03:21:32.189Z,9.20
2018-11-07T03:24:01.121Z,9.20
2018-11-07T03:26:30.089Z,9.20
2018-11-07T03:28:59.032Z,9.20
2018-11-07T03:31:28.265Z,9.20
2018-11-07T03:33:57.385Z,9.20
2018-11-07T03:36:26.340Z,9.20
2018-11-07T03:38:55.284Z,9.20
2018-11-07T03:41:24.262Z,9.20
2018-11-07T03:43:53.229Z,9.10
2018-11-07T03:46:22.576Z,9.10
2018-11-07T03:48:51.500Z,9.10
2018-11-07T03:51:20.453Z,9.10
2018-11-07T03:53:49.554Z,9.10
2018-11-07T03:56:18.484Z,9.10
2018-11-07T03:58:47.600Z,9.10
2018-11-07T04:01:17.175Z,9.10
2018-11-07T04:03:46.186Z,9.10
2018-11-07T04:06:15.186Z,9.00
2018-11-07T04:08:44.128Z,9.00
2018-11-07T04:11:13.058Z,9.00
2018-11-07T04:13:42.089Z,9.00
2018-11-07T04:16:11.235Z,9.00
2018-11-07T04:18:40.372Z,9.00
2018-11-07T04:21:09.320Z,9.00
2018-11-07T04:23:38.331Z,9.00
2018-11-07T04:26:07.443Z,9.00
2018-11-07T04:28:36.437Z,9.00
2018-11-07T04:31:05.872Z,9.00
2018-11-07T04:33:34.803Z,9.10
2018-11-07T04:36:04.095Z,9.10
2018-11-07T04:38:33.109Z,9.20
2018-11-07T04:41:02.199Z,9.20
2018-11-07T04:43:31.211Z,9.20
2018-11-07T04:46:00.160Z,9.20
2018-11-07T04:48:29.128Z,9.20
2018-11-07T04:50:58.035Z,9.20
2018-11-07T04:53:26.977Z,9.20
2018-11-07T04:55:56.061Z,9.20
2018-11-07T04:58:25.019Z,9.20
2018-11-07T05:00:53.940Z,9.20
2018-11-07T05:03:22.881Z,9.30
2018-11-07T05:05:52.182Z,9.30
2018-11-07T05:08:21.276Z,9.30
2018-11-07T05:10:50.417Z,9.30
2018-11-07T05:13:19.367Z,9.30
2018-11-07T05:15:48.325Z,9.30
2018-11-07T05:18:17.453Z,9.30
2018-11-07T05:20:46.385Z,9.20
2018-11-07T05:23:15.469Z,9.20
2018-11-07T05:25:44.423Z,9.20
2018-11-07T05:28:13.367Z,9.30
2018-11-07T05:30:42.353Z,9.20
2018-11-07T05:33:11.304Z,9.20
2018-11-07T05:35:40.260Z,9.20
2018-11-07T05:38:09.503Z,9.20
2018-11-07T05:40:38.519Z,9.20
2018-11-07T05:43:07.607Z,9.30
2018-11-07T05:45:36.568Z,9.30
2018-11-07T05:48:05.620Z,9.30
2018-11-07T05:50:34.585Z,9.30
2018-11-07T05:53:03.572Z,9.30
2018-11-07T05:55:32.535Z,9.30
2018-11-07T05:58:01.608Z,9.30
2018-11-07T06:00:30.580Z,9.30
2018-11-07T06:02:59.584Z,9.40
2018-11-07T06:05:28.634Z,9.30
2018-11-07T06:07:57.627Z,9.40
2018-11-07T06:10:26.667Z,9.30
2018-11-07T06:12:55.618Z,9.40
2018-11-07T06:15:24.665Z,9.40
2018-11-07T06:17:53.742Z,9.40
2018-11-07T06:20:22.674Z,9.40
2018-11-07T06:22:51.808Z,9.40
2018-11-07T06:25:20.854Z,9.40
2018-11-07T06:27:49.920Z,9.40
2018-11-07T06:30:18.988Z,9.40
2018-11-07T06:32:47.927Z,9.40
2018-11-07T06:35:16.956Z,9.40
2018-11-07T06:37:45.948Z,9.40
2018-11-07T06:40:14.978Z,9.40
2018-11-07T06:42:45.779Z,9.50
2018-11-07T06:45:14.729Z,9.60
2018-11-07T06:47:43.695Z,9.60
2018-11-07T06:50:14.437Z,9.60
2018-11-07T06:52:43.897Z,9.60
2018-11-07T06:55:13.078Z,9.70
2018-11-07T06:57:42.553Z,9.70
2018-11-07T07:00:14.173Z,9.70
2018-11-07T07:02:44.370Z,9.80
2018-11-07T07:05:13.791Z,9.80
2018-11-07T07:07:42.807Z,9.80
2018-11-07T07:10:14.217Z,9.80
2018-11-07T07:12:43.267Z,9.90
2018-11-07T07:15:14.075Z,9.90
2018-11-07T07:17:43.157Z,9.90
2018-11-07T07:20:15.349Z,10.00
2018-11-07T07:22:45.407Z,10.00
2018-11-07T07:25:14.583Z,10.10
2018-11-07T07:27:44.234Z,10.20
2018-11-07T07:30:15.205Z,10.20
2018-11-07T07:32:45.090Z,10.30
2018-11-07T07:35:14.985Z,10.30
2018-11-07T07:37:44.159Z,10.40
2018-11-07T07:40:14.334Z,10.40
2018-11-07T07:42:44.080Z,10.50
2018-11-07T07:45:15.039Z,10.50
2018-11-07T07:47:44.710Z,10.60
2018-11-07T07:50:14.912Z,10.60
2018-11-07T07:52:44.312Z,10.70
2018-11-07T07:55:13.818Z,10.70
2018-11-07T07:57:43.314Z,10.80
2018-11-07T08:00:14.385Z,10.90
2018-11-07T08:02:45.184Z,11.00
2018-11-07T08:05:14.372Z,11.10
2018-11-07T08:07:44.161Z,11.20
2018-11-07T08:10:14.459Z,11.20
2018-11-07T08:12:44.046Z,11.30
2018-11-07T08:15:13.937Z,11.40
2018-11-07T08:17:43.696Z,11.50
2018-11-07T08:20:14.145Z,11.50
2018-11-07T08:22:44.407Z,11.60
2018-11-07T08:25:13.383Z,11.60
2018-11-07T08:27:42.341Z,11.70
2018-11-07T08:30:14.275Z,11.70
2018-11-07T08:32:43.608Z,11.70
2018-11-07T08:35:13.591Z,11.70
2018-11-07T08:37:43.594Z,11.70
2018-11-07T08:40:17.719Z,11.80
2018-11-07T08:42:47.709Z,11.80
2018-11-07T08:45:16.837Z,11.80
2018-11-07T08:47:46.653Z,11.80
2018-11-07T08:50:17.067Z,11.90
2018-11-07T08:52:47.394Z,11.90
2018-11-07T08:55:17.814Z,11.90
2018-11-07T08:57:47.265Z,12.00
2018-11-07T09:00:17.905Z,12.00
2018-11-07T09:02:47.509Z,12.00
2018-11-07T09:05:17.560Z,12.10
2018-11-07T09:07:47.081Z,12.10
2018-11-07T09:10:17.342Z,12.20
2018-11-07T09:12:46.624Z,12.20
2018-11-07T09:15:17.350Z,12.20
2018-11-07T09:17:46.315Z,12.30
2018-11-07T09:20:17.270Z,12.30
2018-11-07T09:22:46.369Z,12.30
2018-11-07T09:25:16.176Z,12.30
2018-11-07T09:27:46.065Z,12.40
2018-11-07T09:30:16.472Z,12.40
2018-11-07T09:32:45.456Z,12.50
2018-11-07T09:35:15.128Z,12.60
2018-11-07T09:37:44.362Z,12.60
2018-11-07T09:40:17.103Z,12.70
2018-11-07T09:42:46.909Z,12.80
2018-11-07T09:45:17.106Z,12.90
2018-11-07T09:47:47.166Z,12.90
2018-11-07T09:50:17.454Z,13.00
2018-11-07T09:52:46.610Z,13.00
2018-11-07T09:55:18.214Z,13.10
2018-11-07T09:57:47.392Z,13.10
2018-11-07T10:00:19.270Z,13.10
2018-11-07T10:02:48.479Z,13.10
2018-11-07T10:05:18.709Z,13.10
2018-11-07T10:07:47.909Z,13.20
2018-11-07T10:10:18.315Z,13.30
2018-11-07T10:12:47.722Z,13.30
2018-11-07T10:15:17.540Z,13.40
2018-11-07T10:17:46.502Z,13.40
2018-11-07T10:20:17.162Z,13.50
2018-11-07T10:22:46.978Z,13.60
2018-11-07T10:25:16.266Z,13.70
2018-11-07T10:27:45.529Z,13.70
2018-11-07T10:30:16.056Z,13.80
2018-11-07T10:32:46.332Z,13.90
2018-11-07T10:35:15.379Z,13.90
2018-11-07T10:37:44.818Z,13.90
2018-11-07T10:40:20.763Z,13.90
2018-11-07T10:42:49.780Z,14.00
2018-11-07T10:45:18.786Z,14.00
2018-11-07T10:47:48.625Z,14.10
2018-11-07T10:50:18.911Z,14.20
2018-11-07T10:52:48.595Z,14.20
2018-11-07T10:55:18.011Z,14.30
2018-11-07T10:57:47.137Z,14.40
2018-11-07T11:00:21.693Z,14.50
2018-11-07T11:02:56.860Z,14.60
2018-11-07T11:05:26.280Z,14.70
2018-11-07T11:07:55.246Z,14.80
2018-11-07T11:10:24.721Z,14.80
2018-11-07T11:12:53.723Z,14.90
2018-11-07T11:15:22.828Z,14.90
2018-11-07T11:17:51.913Z,15.00
2018-11-07T11:20:20.866Z,15.00
2018-11-07T11:22:49.831Z,15.00
2018-11-07T11:25:18.905Z,15.10
2018-11-07T11:27:48.025Z,15.10
2018-11-07T11:30:16.991Z,15.20
2018-11-07T11:32:46.178Z,15.30
2018-11-07T11:35:15.373Z,15.30
2018-11-07T11:37:44.355Z,15.30
2018-11-07T11:40:14.964Z,15.30
2018-11-07T11:42:44.721Z,15.30
2018-11-07T11:45:15.263Z,15.30
2018-11-07T11:47:44.956Z,15.40
2018-11-07T11:50:16.266Z,15.40
2018-11-07T11:52:46.118Z,15.30
2018-11-07T11:55:15.114Z,15.30
2018-11-07T11:57:44.735Z,15.30
2018-11-07T12:00:15.840Z,15.30
2018-11-07T12:02:45.492Z,15.40
2018-11-07T12:05:15.370Z,15.40
2018-11-07T12:07:44.536Z,15.40
2018-11-07T12:10:18.999Z,15.40
2018-11-07T12:12:49.646Z,15.50
2018-11-07T12:15:19.841Z,15.50
2018-11-07T12:17:49.320Z,15.60
2018-11-07T12:20:18.450Z,15.60
2018-11-07T12:22:47.580Z,15.60
2018-11-07T12:25:17.290Z,15.60
2018-11-07T12:27:46.585Z,15.60
2018-11-07T12:30:17.742Z,15.70
2018-11-07T12:32:47.632Z,15.70
2018-11-07T12:35:17.170Z,15.80
2018-11-07T12:37:46.690Z,15.80
2018-11-07T12:40:16.084Z,15.80
2018-11-07T12:42:45.105Z,15.80
2018-11-07T12:45:15.487Z,15.80
2018-11-07T12:47:44.419Z,15.80
2018-11-07T12:50:17.751Z,15.90
2018-11-07T12:52:47.296Z,15.90
2018-11-07T12:55:16.854Z,15.90
2018-11-07T12:57:45.801Z,15.90
2018-11-07T13:00:17.883Z,15.90
2018-11-07T13:02:47.193Z,15.90
2018-11-07T13:05:17.449Z,15.90
2018-11-07T13:07:47.491Z,15.90
2018-11-07T13:10:17.700Z,15.90
2018-11-07T13:12:47.341Z,15.90
2018-11-07T13:15:17.041Z,15.90
2018-11-07T13:17:47.407Z,15.90
2018-11-07T13:20:18.513Z,16.00
2018-11-07T13:22:49.016Z,16.10
2018-11-07T13:25:18.279Z,16.10
2018-11-07T13:27:47.339Z,16.20
2018-11-07T13:30:17.624Z,16.30
2018-11-07T13:32:46.604Z,16.30
2018-11-07T13:35:16.480Z,16.40
2018-11-07T13:37:46.692Z,16.40
2018-11-07T13:40:18.349Z,16.40
2018-11-07T13:42:47.420Z,16.50
2018-11-07T13:45:18.559Z,16.60
2018-11-07T13:47:48.904Z,16.60
2018-11-07T13:50:18.366Z,16.50
2018-11-07T13:52:47.539Z,16.60
2018-11-07T13:55:16.643Z,16.60
2018-11-07T13:57:45.900Z,16.70
2018-11-07T14:00:19.918Z,16.70
2018-11-07T14:02:49.296Z,16.80
2018-11-07T14:05:18.280Z,16.80
2018-11-07T14:07:47.547Z,16.80
2018-11-07T14:10:20.474Z,16.80
2018-11-07T14:12:50.450Z,16.80
2018-11-07T14:15:19.444Z,16.80
2018-11-07T14:17:48.743Z,16.80
2018-11-07T14:20:17.988Z,16.70
2018-11-07T14:22:47.124Z,16.60
2018-11-07T14:25:16.158Z,16.60
2018-11-07T14:27:45.365Z,16.60
2018-11-07T14:30:16.019Z,16.50
2018-11-07T14:32:51.367Z,16.40
2018-11-07T14:35:20.915Z,16.20
2018-11-07T14:37:50.333Z,16.00
2018-11-07T14:40:19.446Z,15.90
2018-11-07T14:42:48.445Z,15.80
2018-11-07T14:45:17.905Z,15.60
2018-11-07T14:47:46.966Z,15.50
2018-11-07T14:50:16.227Z,15.50
2018-11-07T14:52:45.533Z,15.40
2018-11-07T14:55:14.533Z,15.30
2018-11-07T14:57:43.629Z,15.30
2018-11-07T15:00:14.485Z,15.20
2018-11-07T15:02:44.135Z,15.10
2018-11-07T15:05:14.797Z,15.10
2018-11-07T15:07:44.509Z,15.00
2018-11-07T15:10:14.704Z,14.90
2018-11-07T15:12:43.738Z,14.80
2018-11-07T15:15:17.578Z,14.70
2018-11-07T15:17:47.348Z,14.70
2018-11-07T15:20:17.490Z,14.60
2018-11-07T15:22:46.492Z,14.50
2018-11-07T15:25:16.633Z,14.40
2018-11-07T15:27:46.543Z,14.40
2018-11-07T15:30:16.836Z,14.30
2018-11-07T15:32:46.717Z,14.30
2018-11-07T15:35:15.831Z,14.20
2018-11-07T15:37:44.937Z,14.10
2018-11-07T15:40:15.352Z,14.10
2018-11-07T15:42:44.958Z,14.00
2018-11-07T15:45:15.414Z,13.90
2018-11-07T15:47:44.478Z,13.90
2018-11-07T15:50:18.912Z,13.80
2018-11-07T15:52:48.519Z,13.80
2018-11-07T15:55:17.766Z,13.70
2018-11-07T15:57:46.718Z,13.60
2018-11-07T16:00:16.930Z,13.60
2018-11-07T16:02:45.966Z,13.50
2018-11-07T16:05:15.934Z,13.40
2018-11-07T16:07:44.905Z,13.40
2018-11-07T16:10:15.056Z,13.30
2018-11-07T16:12:44.463Z,13.20
2018-11-07T16:15:15.318Z,13.20
2018-11-07T16:17:45.074Z,13.10
2018-11-07T16:20:15.545Z,13.10
2018-11-07T16:22:45.388Z,13.10
2018-11-07T16:25:14.502Z,13.00
2018-11-07T16:27:44.017Z,13.00
2018-11-07T16:30:14.571Z,12.90
2018-11-07T16:32:43.909Z,12.90
2018-11-07T16:35:13.594Z,12.90
2018-11-07T16:37:43.109Z,12.80
2018-11-07T16:40:15.677Z,12.80
2018-11-07T16:42:44.991Z,12.70
2018-11-07T16:45:15.279Z,12.70
2018-11-07T16:47:44.354Z,12.60
2018-11-07T16:50:15.106Z,12.50
2018-11-07T16:52:44.215Z,12.50
2018-11-07T16:55:13.918Z,12.40
2018-11-07T16:57:42.898Z,12.40
2018-11-07T17:00:18.161Z,12.30
2018-11-07T17:02:47.984Z,12.30
2018-11-07T17:05:17.465Z,12.30
2018-11-07T17:07:47.803Z,12.20
2018-11-07T17:10:17.198Z,12.20
2018-11-07T17:12:46.179Z,12.20
2018-11-07T17:15:15.243Z,12.10
2018-11-07T17:17:44.207Z,12.10
2018-11-07T17:20:14.321Z,12.10
2018-11-07T17:22:43.704Z,12.00
2018-11-07T17:25:15.167Z,12.00
2018-11-07T17:27:44.359Z,11.90
2018-11-07T17:30:14.430Z,11.90
2018-11-07T17:32:43.567Z,11.90
2018-11-07T17:35:13.847Z,11.90
2018-11-07T17:37:43.390Z,11.80
2018-11-07T17:40:15.270Z,11.80
2018-11-07T17:42:44.573Z,11.80
2018-11-07T17:45:15.697Z,11.70
2018-11-07T17:47:45.195Z,11.70
2018-11-07T17:50:15.621Z,11.70
2018-11-07T17:52:44.726Z,11.60
2018-11-07T17:55:15.183Z,11.70
2018-11-07T17:57:44.148Z,11.60
2018-11-07T18:00:18.767Z,11.60
2018-11-07T18:02:48.097Z,11.60
2018-11-07T18:05:17.274Z,11.60
2018-11-07T18:07:46.392Z,11.50
2018-11-07T18:10:16.956Z,11.40
2018-11-07T18:12:46.291Z,11.40
2018-11-07T18:15:15.382Z,11.30
2018-11-07T18:17:44.407Z,11.20
2018-11-07T18:20:14.921Z,11.20
2018-11-07T18:22:43.997Z,11.20
2018-11-07T18:25:13.936Z,11.20
2018-11-07T18:27:43.362Z,11.20
2018-11-07T18:30:13.742Z,11.20
2018-11-07T18:32:43.268Z,11.10
2018-11-07T18:35:13.926Z,11.10
2018-11-07T18:37:43.196Z,11.10
2018-11-07T18:40:13.532Z,11.00
2018-11-07T18:42:42.545Z,11.00
2018-11-07T18:45:12.344Z,11.00
2018-11-07T18:47:42.878Z,11.00
2018-11-07T18:50:14.733Z,10.90
2018-11-07T18:52:44.119Z,10.90
2018-11-07T18:55:14.222Z,10.80
2018-11-07T18:57:44.144Z,10.80
2018-11-07T19:00:15.847Z,10.80
2018-11-07T19:02:45.806Z,10.70
2018-11-07T19:05:15.307Z,10.70
2018-11-07T19:07:44.384Z,10.70
2018-11-07T19:10:18.716Z,10.70
2018-11-07T19:12:48.170Z,10.70
2018-11-07T19:15:17.652Z,10.70
2018-11-07T19:17:47.656Z,10.70
2018-11-07T19:20:17.235Z,10.70
2018-11-07T19:22:46.556Z,10.60
2018-11-07T19:25:17.024Z,10.60
2018-11-07T19:27:46.119Z,10.60
2018-11-07T19:30:16.747Z,10.60
2018-11-07T19:32:46.812Z,10.60
2018-11-07T19:35:17.263Z,10.60
2018-11-07T19:37:47.095Z,10.60
2018-11-07T19:40:18.767Z,10.50
2018-11-07T19:42:48.065Z,10.60
2018-11-07T19:45:18.370Z,10.50
2018-11-07T19:47:47.590Z,10.50
2018-11-07T19:50:17.727Z,10.50
2018-11-07T19:52:47.793Z,10.50
2018-11-07T19:55:20.646Z,10.50
2018-11-07T19:57:57.551Z,10.50
2018-11-07T20:00:27.000Z,10.50
2018-11-07T20:02:55.969Z,10.50
2018-11-07T20:05:25.316Z,10.50
2018-11-07T20:07:54.273Z,10.50
2018-11-07T20:10:23.404Z,10.40
2018-11-07T20:12:52.629Z,10.40
2018-11-07T20:15:21.947Z,10.40
2018-11-07T20:17:51.303Z,10.40
2018-11-07T20:20:20.296Z,10.50
2018-11-07T20:22:49.293Z,10.50
2018-11-07T20:25:18.480Z,10.50
2018-11-07T20:27:47.624Z,10.50
2018-11-07T20:30:18.141Z,10.50
2018-11-07T20:32:47.118Z,10.60
2018-11-07T20:35:17.361Z,10.60
2018-11-07T20:37:46.509Z,10.70
2018-11-07T20:40:16.910Z,10.70
2018-11-07T20:42:45.950Z,10.90
2018-11-07T20:45:15.601Z,10.90
2018-11-07T20:47:45.070Z,11.00
2018-11-07T20:50:16.244Z,11.00
2018-11-07T20:52:45.782Z,11.00
2018-11-07T20:55:15.258Z,11.00
2018-11-07T20:57:44.234Z,11.00
2018-11-07T21:00:18.364Z,11.00
2018-11-07T21:02:47.763Z,11.00
2018-11-07T21:05:17.108Z,11.00
2018-11-07T21:07:46.040Z,11.00
2018-11-07T21:10:18.262Z,10.90
2018-11-07T21:12:47.600Z,10.90
2018-11-07T21:15:17.519Z,10.90
2018-11-07T21:17:46.946Z,10.90
2018-11-07T21:20:15.935Z,10.80
2018-11-07T21:22:45.113Z,10.80
2018-11-07T21:25:14.274Z,10.80
2018-11-07T21:27:43.343Z,10.70
2018-11-07T21:30:14.071Z,10.70
2018-11-07T21:32:43.668Z,10.70
2018-11-07T21:35:12.870Z,10.70
2018-11-07T21:37:42.032Z,10.60
2018-11-07T21:40:13.101Z,10.60
2018-11-07T21:42:42.357Z,10.60
2018-11-07T21:45:12.625Z,10.60
2018-11-07T21:47:41.952Z,10.60
2018-11-07T21:50:12.550Z,10.60
2018-11-07T21:52:41.634Z,10.60
2018-11-07T21:55:10.640Z,10.60
2018-11-07T21:57:39.917Z,10.60
2018-11-07T22:00:11.213Z,10.60
2018-11-07T22:02:40.413Z,10.50
2018-11-07T22:05:10.485Z,10.50
2018-11-07T22:07:39.791Z,10.50
2018-11-07T22:10:09.659Z,10.40
2018-11-07T22:12:38.635Z,10.40
2018-11-07T22:15:08.557Z,10.40
2018-11-07T22:17:37.698Z,10.40
2018-11-07T22:20:13.265Z,10.40
2018-11-07T22:22:42.446Z,10.40
2018-11-07T22:25:11.541Z,10.30
2018-11-07T22:27:40.542Z,10.30
2018-11-07T22:30:11.236Z,10.30
2018-11-07T22:32:40.475Z,10.30
2018-11-07T22:35:11.410Z,10.30
2018-11-07T22:37:40.620Z,10.30
2018-11-07T22:40:11.636Z,10.30
2018-11-07T22:42:40.640Z,10.30
2018-11-07T22:45:11.170Z,10.20
2018-11-07T22:47:40.320Z,10.20
2018-11-07T22:50:11.210Z,10.20
2018-11-07T22:52:41.346Z,10.20
2018-11-07T22:55:10.278Z,10.10
2018-11-07T22:57:39.827Z,10.10
2018-11-07T23:00:15.027Z,10.10
2018-11-07T23:02:43.953Z,10.10
2018-11-07T23:05:12.898Z,10.00
2018-11-07T23:07:41.835Z,10.00
2018-11-07T23:10:10.982Z,10.00
2018-11-07T23:12:39.938Z,10.00
2018-11-07T23:15:08.951Z,10.00
2018-11-07T23:17:38.020Z,10.00
2018-11-07T23:20:08.693Z,9.90
2018-11-07T23:22:37.624Z,9.90
2018-11-07T23:25:07.791Z,9.90
2018-11-07T23:27:36.733Z,9.90
2018-11-07T23:30:06.507Z,9.90
2018-11-07T23:32:35.449Z,9.90
2018-11-07T23:35:05.941Z,9.90
2018-11-07T23:37:34.972Z,9.90
2018-11-07T23:40:04.003Z,9.80
2018-11-07T23:42:33.164Z,9.80
2018-11-07T23:45:02.293Z,9.80
2018-11-07T23:47:31.270Z,9.80
2018-11-07T23:50:00.879Z,9.80
2018-11-07T23:52:50.789Z,9.80
2018-11-07T23:55:22.128Z,9.80
2018-11-07T23:57:51.814Z,9.90
